Time;durP1;ratioP1;P1;durP2;ratioP2;P2;SDS_P1;SDS_P2;PMS_P1;PMS_P2;Temp;Humidity;BMP_temperature;BMP_pressure;BME280_temperature;BME280_humidity;BME280_pressure;Samples;Min_cycle;Max_cycle;Signal;HPM_P1;HPM_P2
2022/04/03 00:01:31;;;;;;;18.40;4.67;;;6.90;48.10;;;;;;5065569;28;20211;-94
2022/04/03 00:03:59;;;;;;;22.13;5.47;;;6.90;48.10;;;;;;5056053;28;20654;-91
2022/04/03 00:06:43;;;;;;;11.70;3.37;;;6.90;48.10;;;;;;5065747;28;20260;-93
2022/04/03 00:09:29;;;;;;;;;;;;;;;;;;;;;
2022/04/03 00:11:56;;;;;;;15.87;4.03;;;6.90;48.20;;;;;;5069136;28;20594;-90
2022/04/03 00:14:23;;;;;;;11.30;3.13;;;6.90;48.10;;;;;;5066470;28;20732;-91
2022/04/03 00:16:51;;;;;;;9.77;2.63;;;7.00;48.20;;;;;;5064637;28;20243;-92
2022/04/03 00:19:19;;;;;;;13.83;3.60;;;7.00;48.20;;;;;;5076149;28;20734;-91
2022/04/03 00:21:49;;;;;;;14.83;4.03;;;7.00;48.20;;;;;;5059220;28;20692;-93
2022/04/03 00:24:17;;;;;;;14.47;3.77;;;6.90;48.10;;;;;;5071391;28;20204;-93
2022/04/03 00:26:44;;;;;;;14.87;3.97;;;6.90;48.10;;;;;;5069704;28;20196;-91
2022/04/03 00:29:12;;;;;;;12.30;3.37;;;6.90;48.20;;;;;;5068002;28;20205;-96
2022/04/03 00:31:43;;;;;;;12.90;3.43;;;6.90;48.40;;;;;;5060774;28;20249;-96
2022/04/03 00:34:10;;;;;;;10.13;2.77;;;6.90;48.40;;;;;;5072018;28;20226;-96
2022/04/03 00:36:47;;;;;;;13.93;3.60;;;6.80;48.20;;;;;;5068996;28;20250;-96
2022/04/03 00:39:15;;;;;;;10.00;3.13;;;6.80;48.20;;;;;;5073682;28;20540;-92
2022/04/03 00:41:45;;;;;;;9.03;2.87;;;6.70;48.10;;;;;;5072292;28;20202;-96
2022/04/03 00:44:14;;;;;;;14.47;3.77;;;6.70;48.40;;;;;;5072751;28;20268;-92
2022/04/03 00:46:45;;;;;;;10.93;3.10;;;6.60;48.30;;;;;;5071104;28;20203;-93
2022/04/03 00:49:13;;;;;;;11.60;3.40;;;6.60;48.20;;;;;;5067834;28;20205;-91
2022/04/03 00:51:40;;;;;;;11.93;3.53;;;6.60;48.20;;;;;;5058229;28;20233;-91
2022/04/03 00:54:09;;;;;;;14.40;4.10;;;6.50;48.20;;;;;;5067396;28;20186;-91
2022/04/03 00:56:36;;;;;;;7.83;2.53;;;6.50;48.30;;;;;;5057716;28;20902;-90
2022/04/03 00:59:09;;;;;;;10.70;3.37;;;6.50;48.60;;;;;;5066843;28;20728;-93
2022/04/03 01:01:37;;;;;;;11.17;3.23;;;6.50;48.90;;;;;;5053657;28;20233;-96
2022/04/03 01:04:06;;;;;;;13.87;3.57;;;6.40;49.00;;;;;;5054677;28;20203;-90
2022/04/03 01:06:34;;;;;;;12.20;3.30;;;6.40;49.20;;;;;;5060877;28;20236;-96
2022/04/03 01:09:04;;;;;;;17.10;4.30;;;6.40;49.30;;;;;;5054496;28;20599;-95
2022/04/03 01:11:33;;;;;;;10.10;2.80;;;6.30;49.30;;;;;;5069742;28;20262;-92
2022/04/03 01:14:01;;;;;;;13.20;3.63;;;6.30;49.40;;;;;;5064172;28;20213;-90
2022/04/03 01:16:28;;;;;;;14.87;4.10;;;6.30;49.50;;;;;;5060527;28;20232;-91
2022/04/03 01:18:55;;;;;;;7.90;2.30;;;6.30;49.70;;;;;;5050334;28;20190;-92
2022/04/03 01:21:23;;;;;;;13.87;3.87;;;6.20;49.90;;;;;;5057624;28;20624;-94
2022/04/03 01:23:50;;;;;;;16.30;3.83;;;6.20;50.00;;;;;;5057508;28;20203;-90
2022/04/03 01:26:21;;;;;;;10.57;3.03;;;6.20;50.00;;;;;;5067654;28;20216;-96
2022/04/03 01:28:48;;;;;;;13.80;3.77;;;6.20;50.40;;;;;;5065650;28;20234;-93
2022/04/03 01:31:16;;;;;;;10.63;2.93;;;6.20;50.40;;;;;;5055949;28;20217;-92
2022/04/03 01:33:52;;;;;;;10.97;3.33;;;6.10;50.60;;;;;;5069838;28;20229;-92
2022/04/03 01:36:19;;;;;;;10.80;3.10;;;6.10;50.70;;;;;;5066788;28;20224;-95
2022/04/03 01:38:46;;;;;;;18.40;4.67;;;6.10;50.80;;;;;;5061297;28;20556;-90
2022/04/03 01:41:15;;;;;;;9.37;2.77;;;6.10;50.90;;;;;;5060928;28;20255;-92
2022/04/03 01:43:45;;;;;;;14.60;3.80;;;6.10;51.10;;;;;;5058543;28;20210;-95
2022/04/03 01:46:12;;;;;;;11.03;3.07;;;6.10;51.10;;;;;;5069163;28;20201;-92
2022/04/03 01:48:39;;;;;;;10.17;2.90;;;6.10;51.00;;;;;;5063434;28;20605;-92
2022/04/03 01:51:08;;;;;;;18.33;4.60;;;6.20;50.90;;;;;;5063042;28;20790;-94
2022/04/03 01:53:35;;;;;;;14.63;3.67;;;6.10;50.90;;;;;;5056987;28;20240;-90
2022/04/03 01:56:04;;;;;;;10.03;2.97;;;6.20;50.80;;;;;;5060280;28;20220;-92
2022/04/03 01:58:32;;;;;;;12.93;3.70;;;6.20;50.70;;;;;;5063516;28;20675;-90
2022/04/03 02:01:01;;;;;;;18.50;4.60;;;6.20;50.70;;;;;;5065725;28;20658;-93
2022/04/03 02:03:29;;;;;;;19.00;4.97;;;6.20;50.70;;;;;;5069085;28;20685;-92
2022/04/03 02:05:58;;;;;;;14.57;3.77;;;6.30;50.90;;;;;;5070123;28;20624;-91
2022/04/03 02:08:28;;;;;;;9.93;3.00;;;6.30;50.70;;;;;;5064008;28;20217;-93
2022/04/03 02:10:56;;;;;;;15.50;3.73;;;6.30;50.70;;;;;;5067092;28;20712;-92
2022/04/03 02:13:23;;;;;;;13.80;3.80;;;6.30;50.70;;;;;;5071724;28;20232;-91
2022/04/03 02:15:51;;;;;;;10.20;3.23;;;6.30;50.50;;;;;;5070346;28;20197;-93
2022/04/03 02:18:19;;;;;;;16.17;3.67;;;6.30;50.50;;;;;;5071239;28;20711;-93
2022/04/03 02:20:46;;;;;;;8.00;2.53;;;6.30;50.50;;;;;;5069516;28;20194;-92
2022/04/03 02:23:14;;;;;;;9.73;2.97;;;6.30;50.40;;;;;;5070795;28;20213;-91
2022/04/03 02:25:41;;;;;;;13.93;3.60;;;6.30;50.30;;;;;;5068931;28;20204;-92
2022/04/03 02:28:10;;;;;;;8.10;2.20;;;6.30;50.30;;;;;;5070780;28;20201;-92
2022/04/03 02:30:37;;;;;;;10.07;3.03;;;6.30;50.40;;;;;;5070079;28;20220;-90
2022/04/03 02:33:05;;;;;;;10.20;3.20;;;6.30;50.60;;;;;;5070656;28;20233;-91
2022/04/03 02:35:34;;;;;;;9.87;2.87;;;6.20;50.40;;;;;;5069442;28;20221;-90
2022/04/03 02:38:01;;;;;;;11.67;3.40;;;6.20;50.40;;;;;;5069950;28;20209;-92
2022/04/03 02:40:28;;;;;;;10.67;3.23;;;6.20;50.60;;;;;;5070599;28;20239;-95
2022/04/03 02:42:55;;;;;;;15.63;4.07;;;6.30;50.90;;;;;;5070463;28;20262;-91
2022/04/03 02:45:23;;;;;;;16.37;4.70;;;6.20;51.00;;;;;;5069012;28;20231;-93
2022/04/03 02:47:52;;;;;;;13.97;3.53;;;6.20;51.10;;;;;;5066518;28;20199;-91
2022/04/03 02:50:20;;;;;;;9.83;3.27;;;6.20;51.20;;;;;;5071180;28;20201;-90
2022/04/03 02:52:55;;;;;;;10.77;3.20;;;6.20;51.40;;;;;;5070812;28;20232;-92
2022/04/03 02:55:24;;;;;;;23.03;4.97;;;6.20;51.80;;;;;;5070965;28;20223;-92
2022/04/03 02:57:52;;;;;;;10.43;3.10;;;6.20;51.70;;;;;;5069517;28;20216;-91
2022/04/03 03:00:20;;;;;;;12.43;3.73;;;6.20;51.70;;;;;;5071614;28;20572;-94
2022/04/03 03:02:51;;;;;;;10.47;3.00;;;6.20;51.90;;;;;;5051284;28;20626;-92
2022/04/03 03:05:18;;;;;;;11.90;3.23;;;6.20;52.10;;;;;;5050398;28;20209;-94
2022/04/03 03:07:48;;;;;;;9.37;2.97;;;6.20;52.10;;;;;;5071558;28;20649;-91
2022/04/03 03:10:23;;;;;;;12.53;3.50;;;6.20;52.20;;;;;;5071520;28;20217;-93
2022/04/03 03:12:50;;;;;;;9.60;2.60;;;6.20;52.40;;;;;;5067840;28;21095;-92
2022/04/03 03:15:19;;;;;;;12.63;3.33;;;6.20;52.30;;;;;;5069600;28;20201;-91
2022/04/03 03:17:46;;;;;;;9.33;2.67;;;6.20;52.50;;;;;;5070554;28;20252;-94
2022/04/03 03:20:14;;;;;;;8.03;2.70;;;6.20;52.60;;;;;;5070249;28;20237;-93
2022/04/03 03:22:42;;;;;;;8.97;2.57;;;6.20;52.60;;;;;;5069858;28;20548;-94
2022/04/03 03:25:11;;;;;;;13.90;3.60;;;6.30;52.80;;;;;;5071290;28;20586;-95
2022/04/03 03:27:40;;;;;;;7.57;2.60;;;6.30;52.70;;;;;;5072414;28;20250;-95
2022/04/03 03:30:09;;;;;;;10.30;3.27;;;6.30;52.80;;;;;;5070377;28;20760;-91
2022/04/03 03:32:38;;;;;;;5.60;2.13;;;6.30;53.00;;;;;;5070965;28;20325;-93
2022/04/03 03:35:06;;;;;;;11.70;3.10;;;6.30;53.20;;;;;;5070168;28;20212;-91
2022/04/03 03:37:36;;;;;;;7.83;2.93;;;6.40;53.20;;;;;;5070858;28;20208;-93
2022/04/03 03:40:06;;;;;;;13.23;3.67;;;6.40;53.30;;;;;;5068848;28;20255;-94
2022/04/03 03:42:34;;;;;;;11.47;3.30;;;6.40;53.30;;;;;;5053777;28;20279;-93
2022/04/03 03:45:09;;;;;;;9.40;2.80;;;6.40;53.40;;;;;;5070744;28;20220;-91
2022/04/03 03:47:36;;;;;;;12.03;3.60;;;6.50;53.80;;;;;;5074613;28;20201;-92
2022/04/03 03:50:04;;;;;;;10.90;3.20;;;6.50;53.60;;;;;;5079965;28;20200;-92
2022/04/03 03:52:33;;;;;;;11.43;3.40;;;6.50;53.50;;;;;;5075112;28;20204;-95
2022/04/03 03:55:02;;;;;;;9.37;3.00;;;6.50;53.40;;;;;;5074615;28;20225;-95
2022/04/03 03:57:30;;;;;;;14.37;3.73;;;6.50;53.60;;;;;;5073934;28;20267;-94
2022/04/03 03:59:57;;;;;;;12.67;3.83;;;6.50;53.60;;;;;;5072291;28;20270;-90
2022/04/03 04:02:27;;;;;;;14.90;3.90;;;6.50;53.50;;;;;;5072571;28;20603;-92
2022/04/03 04:04:54;;;;;;;11.47;3.27;;;6.60;53.90;;;;;;5071973;28;20584;-95
2022/04/03 04:07:22;;;;;;;10.93;3.60;;;6.60;54.00;;;;;;5062870;28;20225;-91
2022/04/03 04:09:49;;;;;;;14.27;3.97;;;6.70;54.00;;;;;;5064958;28;20213;-92
2022/04/03 04:12:16;;;;;;;14.13;4.70;;;6.70;54.10;;;;;;5072505;28;20194;-93
2022/04/03 04:14:43;;;;;;;10.93;3.70;;;6.70;54.30;;;;;;5072086;28;20229;-93
2022/04/03 04:17:12;;;;;;;12.53;3.80;;;6.70;54.20;;;;;;5072578;28;20203;-91
2022/04/03 04:19:45;;;;;;;11.27;3.33;;;6.70;54.10;;;;;;5071239;28;20203;-91
2022/04/03 04:22:12;;;;;;;13.80;4.17;;;6.70;54.30;;;;;;5057882;28;20209;-91
2022/04/03 04:24:45;;;;;;;11.83;3.60;;;6.70;54.00;;;;;;5072261;28;20212;-96
2022/04/03 04:27:12;;;;;;;10.70;3.33;;;6.70;54.10;;;;;;5073668;28;20196;-92
2022/04/03 04:29:42;;;;;;;8.13;2.93;;;6.70;54.00;;;;;;5073022;28;20209;-91
2022/04/03 04:32:10;;;;;;;9.37;2.93;;;6.70;54.20;;;;;;5056995;28;20207;-93
2022/04/03 04:34:37;;;;;;;7.53;2.60;;;6.70;54.20;;;;;;5057703;28;20233;-93
2022/04/03 04:37:06;;;;;;;13.03;4.50;;;6.70;54.10;;;;;;5056367;28;20660;-91
2022/04/03 04:39:34;;;;;;;12.27;4.63;;;6.70;53.80;;;;;;5072569;28;20287;-90
2022/04/03 04:42:02;;;;;;;17.93;5.33;;;6.60;53.60;;;;;;5071783;28;20206;-94
2022/04/03 04:44:31;;;;;;;13.60;4.83;;;6.60;53.80;;;;;;5073898;28;20626;-92
2022/04/03 04:46:59;;;;;;;15.67;5.57;;;6.60;53.90;;;;;;5072420;28;20200;-91
2022/04/03 04:49:34;;;;;;;11.37;4.17;;;6.50;53.90;;;;;;5071715;28;20650;-93
2022/04/03 04:52:01;;;;;;;10.20;3.90;;;6.50;54.20;;;;;;5071788;28;20206;-93
2022/04/03 04:54:32;;;;;;;8.40;3.57;;;6.50;53.90;;;;;;5073142;28;20311;-96
2022/04/03 04:57:00;;;;;;;13.43;4.23;;;6.40;53.50;;;;;;5072249;28;20213;-91
2022/04/03 04:59:28;;;;;;;11.30;4.37;;;6.40;53.30;;;;;;5070575;28;20207;-89
2022/04/03 05:01:58;;;;;;;14.50;4.33;;;6.30;53.20;;;;;;5070731;28;20228;-92
2022/04/03 05:04:27;;;;;;;11.13;3.43;;;6.30;53.40;;;;;;5073505;28;20231;-96
2022/04/03 05:06:55;;;;;;;10.20;3.63;;;6.30;53.50;;;;;;5072438;28;20560;-96
2022/04/03 05:09:22;;;;;;;22.23;5.67;;;6.20;53.20;;;;;;5072079;28;20216;-94
2022/04/03 05:11:53;;;;;;;11.20;3.73;;;6.20;53.50;;;;;;5072929;28;20207;-96
2022/04/03 05:14:21;;;;;;;13.20;3.70;;;6.10;54.10;;;;;;5073559;28;20221;-95
2022/04/03 05:16:49;;;;;;;12.20;4.00;;;6.10;54.20;;;;;;5072771;28;20201;-96
2022/04/03 05:19:17;;;;;;;10.80;3.63;;;6.10;54.20;;;;;;5056703;28;20216;-92
2022/04/03 05:21:47;;;;;;;9.07;3.37;;;6.00;54.10;;;;;;5076082;28;20254;-95
2022/04/03 05:24:14;;;;;;;11.33;3.83;;;6.00;54.60;;;;;;5073061;28;20212;-91
2022/04/03 05:26:41;;;;;;;13.07;4.00;;;5.90;54.50;;;;;;5072425;28;20217;-93
2022/04/03 05:29:10;;;;;;;6.67;2.83;;;5.90;54.40;;;;;;5073819;28;20196;-96
2022/04/03 05:31:39;;;;;;;11.67;3.53;;;5.90;54.30;;;;;;5075018;28;20223;-96
2022/04/03 05:34:15;;;;;;;11.87;3.83;;;5.80;53.90;;;;;;5073061;28;20636;-92
2022/04/03 05:36:43;;;;;;;12.10;4.43;;;5.80;54.40;;;;;;5071821;28;20287;-92
2022/04/03 05:39:10;;;;;;;14.53;5.17;;;5.80;54.50;;;;;;5071603;28;20204;-91
2022/04/03 05:41:38;;;;;;;10.07;3.70;;;5.80;54.70;;;;;;5073365;28;20212;-94
2022/04/03 05:44:06;;;;;;;11.07;3.53;;;5.80;55.20;;;;;;5072716;28;20936;-92
2022/04/03 05:46:34;;;;;;;16.07;5.37;;;5.80;55.40;;;;;;5071167;28;20252;-92
2022/04/03 05:49:02;;;;;;;8.73;3.80;;;5.80;55.60;;;;;;5060802;28;20212;-94
2022/04/03 05:51:39;;;;;;;13.07;3.93;;;5.80;55.90;;;;;;5073079;28;20220;-95
2022/04/03 05:54:09;;;;;;;13.03;3.97;;;5.80;56.10;;;;;;5071657;28;20250;-96
2022/04/03 05:56:38;;;;;;;11.03;3.93;;;5.80;56.10;;;;;;5072284;28;20208;-93
2022/04/03 05:59:23;;;;;;;14.87;4.63;;;5.80;56.10;;;;;;5103698;27;20624;-95
2022/04/03 06:01:51;;;;;;;6.93;3.00;;;5.80;56.80;;;;;;5090111;28;20212;-91
2022/04/03 06:04:19;;;;;;;10.40;3.87;;;5.90;57.00;;;;;;5087776;28;20205;-93
2022/04/03 06:06:47;;;;;;;12.27;4.30;;;5.90;57.80;;;;;;5086885;28;20292;-92
2022/04/03 06:09:18;;;;;;;14.27;4.77;;;5.90;57.40;;;;;;5079990;28;20203;-91
2022/04/03 06:11:45;;;;;;;10.67;3.63;;;5.90;57.40;;;;;;5078067;28;20208;-96
2022/04/03 06:14:13;;;;;;;10.43;3.57;;;6.00;57.40;;;;;;5086072;28;20641;-93
2022/04/03 06:16:42;;;;;;;12.77;4.30;;;5.90;57.40;;;;;;5088452;28;20196;-93
2022/04/03 06:19:09;;;;;;;10.90;3.53;;;6.00;57.50;;;;;;5067456;28;20329;-92
2022/04/03 06:21:36;;;;;;;11.67;4.20;;;6.00;58.00;;;;;;5070899;28;20229;-92
2022/04/03 06:24:04;;;;;;;10.23;3.87;;;6.00;57.40;;;;;;5086878;28;20668;-91
2022/04/03 06:26:31;;;;;;;9.27;3.33;;;6.00;57.40;;;;;;5086122;28;20199;-92
2022/04/03 06:28:58;;;;;;;9.17;3.60;;;6.10;57.50;;;;;;5085805;28;20302;-91
2022/04/03 06:31:25;;;;;;;13.03;4.20;;;6.10;57.60;;;;;;5086576;28;20862;-91
2022/04/03 06:33:58;;;;;;;9.63;3.20;;;6.10;57.70;;;;;;5086451;28;20204;-92
2022/04/03 06:36:25;;;;;;;12.10;4.20;;;6.20;58.00;;;;;;5084487;28;20202;-90
2022/04/03 06:38:52;;;;;;;15.93;4.53;;;6.20;57.90;;;;;;5084360;28;20307;-92
2022/04/03 06:41:23;;;;;;;10.07;3.43;;;6.20;58.00;;;;;;5080660;28;20300;-91
2022/04/03 06:43:53;;;;;;;8.00;3.17;;;6.20;58.50;;;;;;5085840;28;20208;-91
2022/04/03 06:46:27;;;;;;;11.20;3.93;;;6.20;58.20;;;;;;5086472;28;20204;-91
2022/04/03 06:48:57;;;;;;;11.00;3.50;;;6.30;58.60;;;;;;5086197;28;20196;-94
2022/04/03 06:51:25;;;;;;;13.50;4.23;;;6.30;58.50;;;;;;5074332;28;20206;-93
2022/04/03 06:53:52;;;;;;;9.30;3.23;;;6.30;58.60;;;;;;5085232;28;20674;-91
2022/04/03 06:56:19;;;;;;;10.43;3.70;;;6.40;58.70;;;;;;5085580;28;20219;-92
2022/04/03 06:58:48;;;;;;;13.10;3.80;;;6.40;58.90;;;;;;5076651;28;20272;-90
2022/04/03 07:01:17;;;;;;;9.67;3.53;;;6.50;59.50;;;;;;5083938;28;20765;-89
2022/04/03 07:03:45;;;;;;;6.13;2.50;;;6.50;59.40;;;;;;5098123;28;20205;-90
2022/04/03 07:06:14;;;;;;;10.37;3.80;;;6.50;59.30;;;;;;5090475;28;20669;-92
2022/04/03 07:08:43;;;;;;;9.93;3.60;;;6.60;59.40;;;;;;5103317;28;20660;-90
2022/04/03 07:11:10;;;;;;;8.10;3.03;;;6.70;59.50;;;;;;5078609;28;20774;-91
2022/04/03 07:13:37;;;;;;;10.67;3.73;;;6.70;59.50;;;;;;5071225;28;20205;-90
2022/04/03 07:16:05;;;;;;;8.90;2.73;;;6.80;59.70;;;;;;5071447;28;20223;-89
2022/04/03 07:18:38;;;;;;;10.20;3.33;;;6.90;59.90;;;;;;5071863;28;20226;-91
2022/04/03 07:21:05;;;;;;;8.23;2.97;;;7.00;60.00;;;;;;5065252;28;20200;-92
2022/04/03 07:23:33;;;;;;;8.03;2.97;;;7.10;59.70;;;;;;5062989;28;20195;-92
2022/04/03 07:26:00;;;;;;;10.40;3.60;;;7.20;59.90;;;;;;5070938;28;20776;-91
2022/04/03 07:28:30;;;;;;;13.60;4.33;;;7.30;59.70;;;;;;5070874;28;20673;-92
2022/04/03 07:30:59;;;;;;;8.97;3.13;;;7.40;59.90;;;;;;5069061;28;20203;-91
2022/04/03 07:33:26;;;;;;;10.20;3.57;;;7.50;59.50;;;;;;5070701;28;20325;-91
2022/04/03 07:35:54;;;;;;;9.27;3.20;;;7.60;59.40;;;;;;5070329;28;20198;-91
2022/04/03 07:38:21;;;;;;;10.03;3.43;;;7.70;59.20;;;;;;5071066;28;20582;-89
2022/04/03 07:40:50;;;;;;;13.33;4.07;;;7.70;59.10;;;;;;5067984;28;20204;-90
2022/04/03 07:43:20;;;;;;;10.37;3.47;;;7.90;59.00;;;;;;5062991;28;20259;-90
2022/04/03 07:45:51;;;;;;;9.93;3.43;;;7.90;58.70;;;;;;5070460;28;20746;-91
2022/04/03 07:48:19;;;;;;;9.97;3.97;;;8.00;58.70;;;;;;5070896;28;20268;-93
2022/04/03 07:50:46;;;;;;;6.97;2.97;;;8.10;58.50;;;;;;5070060;28;20210;-90
2022/04/03 07:53:16;;;;;;;9.87;3.67;;;8.20;58.40;;;;;;5070165;28;20222;-93
2022/04/03 07:55:44;;;;;;;11.47;3.97;;;8.20;58.30;;;;;;5070849;28;20292;-92
2022/04/03 07:58:16;;;;;;;6.87;2.90;;;8.30;58.30;;;;;;5067333;28;20319;-90
2022/04/03 08:00:43;;;;;;;17.50;5.47;;;8.40;58.20;;;;;;5069110;28;20298;-92
2022/04/03 08:03:11;;;;;;;7.30;3.37;;;8.40;58.00;;;;;;5070276;28;20204;-90
2022/04/03 08:05:38;;;;;;;8.90;3.60;;;8.50;58.00;;;;;;5071009;28;20568;-91
2022/04/03 08:08:05;;;;;;;10.20;3.97;;;8.50;57.90;;;;;;5068027;28;20333;-92
2022/04/03 08:10:34;;;;;;;8.43;3.43;;;8.60;57.90;;;;;;5064741;28;20196;-90
2022/04/03 08:13:01;;;;;;;11.23;3.73;;;8.60;57.70;;;;;;5066452;28;20652;-91
2022/04/03 08:15:30;;;;;;;12.40;3.93;;;8.70;57.50;;;;;;5066191;28;20249;-93
2022/04/03 08:17:59;;;;;;;8.83;3.63;;;8.70;57.60;;;;;;5066867;28;20219;-93
2022/04/03 08:20:26;;;;;;;11.93;4.17;;;8.80;57.70;;;;;;5067786;28;20216;-91
2022/04/03 08:22:55;;;;;;;11.53;3.97;;;8.80;57.70;;;;;;5067425;28;20212;-93
2022/04/03 08:25:29;;;;;;;12.03;4.30;;;8.80;57.50;;;;;;5073000;28;20206;-93
2022/04/03 08:27:57;;;;;;;8.93;3.13;;;8.90;57.90;;;;;;5071568;28;20205;-92
2022/04/03 08:30:27;;;;;;;9.53;3.60;;;8.90;57.90;;;;;;5071969;28;20199;-91
2022/04/03 08:32:56;;;;;;;12.50;4.03;;;9.00;58.00;;;;;;5069011;28;20210;-91
2022/04/03 08:35:30;;;;;;;9.67;3.43;;;9.00;57.90;;;;;;5069367;28;20210;-93
2022/04/03 08:37:59;;;;;;;14.20;4.40;;;9.10;57.90;;;;;;5068130;28;20999;-90
2022/04/03 08:40:28;;;;;;;8.93;3.47;;;9.20;57.70;;;;;;5068216;28;20192;-91
2022/04/03 08:42:59;;;;;;;9.47;3.10;;;9.30;57.60;;;;;;5067584;28;20713;-92
2022/04/03 08:45:28;;;;;;;8.73;3.47;;;9.30;57.60;;;;;;5066133;28;20200;-94
2022/04/03 08:47:58;;;;;;;12.40;4.23;;;9.40;57.70;;;;;;5067805;28;20835;-92
2022/04/03 08:50:27;;;;;;;6.83;2.83;;;9.60;57.90;;;;;;5052007;28;20703;-92
2022/04/03 08:52:57;;;;;;;8.70;3.17;;;9.70;58.00;;;;;;5050034;28;20192;-92
2022/04/03 08:55:25;;;;;;;7.30;2.90;;;9.80;57.80;;;;;;5066169;28;20200;-90
2022/04/03 08:57:53;;;;;;;9.33;3.27;;;10.00;56.50;;;;;;5069663;28;20223;-92
2022/04/03 09:00:20;;;;;;;11.57;2.83;;;10.20;56.40;;;;;;5070455;28;20231;-92
2022/04/03 09:02:51;;;;;;;8.17;3.50;;;10.50;56.40;;;;;;5069392;28;20203;-93
2022/04/03 09:05:20;;;;;;;8.87;2.53;;;10.70;56.10;;;;;;5070508;28;20204;-91
2022/04/03 09:08:00;;;;;;;12.13;4.20;;;11.00;55.70;;;;;;5050100;28;20228;-92
2022/04/03 09:10:28;;;;;;;10.03;3.03;;;11.20;55.10;;;;;;5065498;28;20293;-93
2022/04/03 09:12:55;;;;;;;8.30;3.13;;;11.50;55.30;;;;;;5069654;28;20299;-90
2022/04/03 09:15:26;;;;;;;9.60;3.93;;;11.70;54.80;;;;;;5067616;28;20651;-92
2022/04/03 09:17:54;;;;;;;10.77;3.97;;;12.00;54.40;;;;;;5049225;28;20250;-90
2022/04/03 09:20:24;;;;;;;9.73;4.00;;;12.10;54.20;;;;;;5056692;28;20290;-92
2022/04/03 09:23:03;;;;;;;6.07;2.63;;;12.30;53.80;;;;;;5068997;28;20717;-91
2022/04/03 09:25:32;;;;;;;8.87;3.63;;;12.40;53.00;;;;;;5068871;28;20576;-91
2022/04/03 09:28:00;;;;;;;8.07;3.03;;;12.60;52.80;;;;;;5068499;28;20211;-91
2022/04/03 09:30:31;;;;;;;7.73;3.03;;;12.60;52.60;;;;;;5068779;28;20624;-89
2022/04/03 09:33:00;;;;;;;8.63;3.37;;;12.70;52.20;;;;;;5068796;28;20597;-91
2022/04/03 09:35:31;;;;;;;10.10;3.57;;;12.70;52.30;;;;;;5067231;28;20207;-92
2022/04/03 09:38:15;;;;;;;7.70;3.20;;;12.80;52.30;;;;;;5066029;28;20205;-91
2022/04/03 09:40:44;;;;;;;12.70;4.53;;;12.70;52.60;;;;;;5068041;28;20293;-91
2022/04/03 09:43:16;;;;;;;7.70;3.40;;;12.70;52.70;;;;;;5059181;28;20830;-90
2022/04/03 09:45:48;;;;;;;12.17;4.30;;;12.60;52.90;;;;;;5065837;28;20281;-91
2022/04/03 09:48:24;;;;;;;7.53;2.73;;;12.60;53.20;;;;;;5066645;28;20198;-91
2022/04/03 09:51:04;;;;;;;9.83;3.73;;;12.50;53.40;;;;;;5049583;28;20662;-91
2022/04/03 09:53:42;;;;;;;11.67;4.53;;;12.40;53.70;;;;;;5063590;28;20219;-90
2022/04/03 09:56:09;;;;;;;7.97;3.10;;;12.40;54.60;;;;;;5067627;28;20665;-91
2022/04/03 09:58:54;;;;;;;7.73;3.30;;;12.50;54.60;;;;;;5067629;28;20612;-91
2022/04/03 10:01:24;;;;;;;14.07;5.43;;;12.50;54.90;;;;;;5066662;28;20734;-90
2022/04/03 10:04:00;;;;;;;10.93;3.43;;;12.60;55.00;;;;;;5071583;28;20205;-90
2022/04/03 10:06:29;;;;;;;9.73;4.00;;;12.70;54.70;;;;;;5068407;28;20225;-90
2022/04/03 10:09:01;;;;;;;8.93;3.80;;;12.90;54.50;;;;;;5066076;28;20203;-90
2022/04/03 10:11:29;;;;;;;9.13;3.87;;;13.00;54.00;;;;;;5067279;28;20209;-91
2022/04/03 10:13:56;;;;;;;9.33;3.40;;;13.10;53.20;;;;;;5070221;28;20200;-91
2022/04/03 10:16:24;;;;;;;6.90;2.63;;;13.20;52.70;;;;;;5068687;28;20249;-90
2022/04/03 10:18:51;;;;;;;9.13;3.27;;;13.30;53.20;;;;;;5069809;28;20727;-89
2022/04/03 10:21:28;;;;;;;6.40;2.57;;;13.40;53.00;;;;;;5070242;28;20272;-90
2022/04/03 10:24:03;;;;;;;8.33;3.00;;;13.60;52.30;;;;;;5070321;28;20207;-90
2022/04/03 10:26:37;;;;;;;8.23;2.93;;;13.70;52.10;;;;;;5073087;28;20249;-90
2022/04/03 10:29:09;;;;;;;7.03;2.53;;;13.90;52.30;;;;;;5079311;28;20211;-89
2022/04/03 10:31:38;;;;;;;8.70;2.90;;;14.00;51.50;;;;;;5063609;28;20208;-90
2022/04/03 10:34:06;;;;;;;5.60;2.30;;;14.10;51.20;;;;;;5073515;28;20207;-90
2022/04/03 10:36:38;;;;;;;7.57;2.57;;;14.30;51.10;;;;;;5076215;28;20204;-90
2022/04/03 10:39:09;;;;;;;12.13;3.70;;;14.50;51.20;;;;;;5070715;28;20793;-89
2022/04/03 10:41:39;;;;;;;10.43;3.40;;;14.60;50.60;;;;;;5070256;28;20830;-89
2022/04/03 10:44:18;;;;;;;11.37;4.27;;;14.80;50.80;;;;;;5063574;28;20256;-91
2022/04/03 10:47:21;;;;;;;6.77;2.70;;;14.90;50.30;;;;;;5063893;28;20194;-91
2022/04/03 10:49:51;;;;;;;11.63;4.10;;;15.10;49.50;;;;;;5069074;28;20204;-91
2022/04/03 10:52:26;;;;;;;8.00;3.30;;;15.30;49.60;;;;;;5071888;28;20196;-89
2022/04/03 10:55:02;;;;;;;7.60;2.70;;;15.40;48.90;;;;;;5068798;28;20585;-90
2022/04/03 10:57:33;;;;;;;10.97;3.70;;;15.50;48.60;;;;;;5067043;28;20244;-92
2022/04/03 11:00:39;;;;;;;11.33;3.57;;;15.60;48.80;;;;;;5068992;28;20873;-89
2022/04/03 11:03:37;;;;;;;14.50;5.10;;;15.70;47.90;;;;;;5067886;28;20234;-92
2022/04/03 11:06:30;;;;;;;10.77;4.00;;;15.80;48.00;;;;;;5057630;28;20202;-90
2022/04/03 11:09:14;;;;;;;16.20;5.83;;;15.90;47.00;;;;;;5059655;28;20214;-90
2022/04/03 11:11:52;;;;;;;9.37;3.80;;;16.00;47.50;;;;;;5059623;28;20210;-91
2022/04/03 11:14:57;;;;;;;10.10;3.93;;;16.00;46.50;;;;;;5067337;28;20206;-90
2022/04/03 11:17:44;;;;;;;7.93;2.97;;;16.00;45.60;;;;;;5070208;28;20276;-91
2022/04/03 11:20:28;;;;;;;9.30;3.43;;;16.00;46.00;;;;;;5068203;28;20284;-90
2022/04/03 11:22:59;;;;;;;10.63;3.17;;;15.90;46.10;;;;;;5069407;28;20285;-91
2022/04/03 11:25:26;;;;;;;7.10;2.93;;;15.90;46.20;;;;;;5071356;28;20213;-91
2022/04/03 11:27:55;;;;;;;10.13;3.27;;;15.90;46.60;;;;;;5054819;28;20206;-90
2022/04/03 11:30:22;;;;;;;8.93;3.53;;;15.80;46.50;;;;;;5068683;28;20210;-95
2022/04/03 11:32:52;;;;;;;16.83;6.20;;;15.80;46.70;;;;;;5069893;28;20337;-91
2022/04/03 11:35:36;;;;;;;5.77;2.47;;;15.80;47.00;;;;;;5072131;28;20631;-92
2022/04/03 11:38:06;;;;;;;7.63;2.50;;;15.90;46.20;;;;;;5074413;28;20268;-95
2022/04/03 11:40:35;;;;;;;9.37;3.20;;;15.90;46.00;;;;;;5073769;28;20214;-96
2022/04/03 11:43:25;;;;;;;6.43;2.63;;;15.90;46.40;;;;;;5069709;28;20218;-95
2022/04/03 11:45:56;;;;;;;6.00;2.60;;;15.90;46.10;;;;;;5056980;28;20198;-92
2022/04/03 11:48:27;;;;;;;5.93;2.60;;;15.90;46.30;;;;;;5072123;28;20203;-91
2022/04/03 11:51:08;;;;;;;9.73;3.53;;;16.00;46.10;;;;;;5072085;28;20205;-95
2022/04/03 11:53:36;;;;;;;6.93;3.63;;;16.00;46.20;;;;;;5075113;28;20276;-95
2022/04/03 11:56:08;;;;;;;10.67;4.43;;;16.00;46.30;;;;;;5073502;28;20197;-96
2022/04/03 11:58:40;;;;;;;9.13;3.53;;;16.10;45.30;;;;;;5074024;28;20249;-93
2022/04/03 12:01:07;;;;;;;5.73;2.57;;;16.00;45.30;;;;;;5072309;28;20229;-94
2022/04/03 12:03:36;;;;;;;6.13;2.53;;;16.00;45.50;;;;;;5066885;28;20843;-95
2022/04/03 12:06:14;;;;;;;10.27;3.80;;;16.00;45.70;;;;;;5063720;28;20201;-93
2022/04/03 12:08:43;;;;;;;6.13;2.30;;;16.00;45.30;;;;;;5073613;28;20701;-94
2022/04/03 12:11:25;;;;;;;13.67;4.87;;;15.90;45.70;;;;;;5065578;28;20212;-95
2022/04/03 12:13:56;;;;;;;7.90;2.90;;;15.80;45.00;;;;;;5069398;28;20198;-92
2022/04/03 12:16:25;;;;;;;8.60;3.37;;;15.70;45.30;;;;;;5074390;28;20247;-94
2022/04/03 12:19:00;;;;;;;11.70;3.97;;;15.50;45.40;;;;;;5069862;28;20214;-91
2022/04/03 12:21:44;;;;;;;10.10;3.43;;;15.40;45.60;;;;;;5057561;28;20214;-90
2022/04/03 12:24:13;;;;;;;15.27;5.20;;;15.20;45.90;;;;;;5066559;28;20690;-92
2022/04/03 12:26:45;;;;;;;10.17;2.83;;;15.00;45.90;;;;;;5072824;28;20282;-91
2022/04/03 12:29:15;;;;;;;18.77;5.70;;;14.90;45.70;;;;;;5067234;28;20200;-90
2022/04/03 12:31:44;;;;;;;4.40;1.90;;;14.70;45.80;;;;;;5070144;28;20207;-91
2022/04/03 12:34:16;;;;;;;12.63;3.80;;;14.60;46.30;;;;;;5065361;28;20294;-90
2022/04/03 12:36:49;;;;;;;7.30;2.90;;;14.60;46.70;;;;;;5062018;28;20198;-92
2022/04/03 12:39:42;;;;;;;9.83;3.53;;;14.60;47.20;;;;;;5066990;28;20686;-92
2022/04/03 12:42:49;;;;;;;8.13;2.77;;;14.50;47.10;;;;;;5067913;28;20307;-89
2022/04/03 12:45:22;;;;;;;12.20;4.17;;;14.60;46.60;;;;;;5037164;28;20303;-93
2022/04/03 12:47:50;;;;;;;11.63;4.03;;;14.70;46.40;;;;;;5072956;28;20232;-94
2022/04/03 12:50:23;;;;;;;8.23;2.97;;;14.80;47.00;;;;;;5076668;28;20232;-92
2022/04/03 12:53:08;;;;;;;7.73;2.47;;;15.00;46.30;;;;;;5068653;28;20235;-94
2022/04/03 12:55:42;;;;;;;5.47;2.23;;;15.10;46.60;;;;;;5075439;28;20200;-93
2022/04/03 12:58:27;;;;;;;7.43;2.60;;;15.20;46.00;;;;;;5078312;28;20220;-95
2022/04/03 13:01:06;;;;;;;6.43;2.53;;;15.40;45.30;;;;;;5067670;28;20229;-93
2022/04/03 13:03:35;;;;;;;7.90;2.87;;;15.60;45.80;;;;;;5068243;28;20298;-93
2022/04/03 13:06:20;;;;;;;10.83;3.40;;;15.70;46.60;;;;;;5067532;28;20204;-91